Susanne.pairtrawler — DETY — position and weather

sailwx.info

Track history (hours):
 
Tides and Currents Weather Stations Pressure Air Temp Water Temp Dewpoint Dewpoint Depression Visibility Wind Speed Wind Dir Waves Ship Positions

Susanne.pairtrawler

Last reported at 2017-May-28 02:23 UTC. Time now 2017-May-28 20:27 UTC.
Position N 57°07' E 008°36'.

Length 40 m; draft 5 m.

Type: Fishing. MMSI: 211227510.

Date/timePositionNaut miles runAvg speedWind from/ knotsBaromVisibWave heightAir tempDewpointWater temp
2017-May-28 02:23N 57°07' E 008°36'0 0.0
2017-May-28 01:59N 57°07' E 008°36'0 0.0
2017-May-28 01:30N 57°07' E 008°36'0 0.0
2017-May-28 00:59N 57°07' E 008°36'0 0.0
2017-May-28 00:28N 57°07' E 008°36'0 0.3
2017-May-28 00:00N 57°07' E 008°36'5 8.9
2017-May-27 23:29N 57°10' E 008°29'611.1
2017-May-27 22:59N 57°13' E 008°20'29 9.4
2017-May-27 19:51N 57°28' E 007°33'1 1.3
2017-May-27 19:22N 57°28' E 007°32'1 2.3
2017-May-27 19:00N 57°28' E 007°30'1 2.4
2017-May-27 18:29N 57°28' E 007°28'1 2.3
2017-May-27 17:58N 57°28' E 007°26'1 2.2
2017-May-27 17:26N 57°28' E 007°24'1 2.0
2017-May-27 16:56N 57°28' E 007°22'1 2.3
2017-May-27 16:25N 57°29' E 007°20'12 2.6
2017-May-27 11:37N 57°26' E 007°42'1 3.8
2017-May-27 11:14N 57°27' E 007°39'1 3.9
2017-May-27 10:56N 57°27' E 007°37'2 3.9
2017-May-27 10:29N 57°27' E 007°34'2 4.1
2017-May-27 09:59N 57°27' E 007°30'1 2.5
2017-May-27 09:26N 57°28' E 007°28'2 3.2
2017-May-27 08:48N 57°28' E 007°24'1 3.9
2017-May-27 08:30N 57°28' E 007°22'2 4.0
2017-May-27 07:58N 57°28' E 007°18'2 4.0
2017-May-27 07:30N 57°28' E 007°14'1 0.8
2017-May-27 06:18N 57°29' E 007°15'1 2.9
2017-May-27 05:57N 57°28' E 007°14'2 4.1
2017-May-27 05:30N 57°29' E 007°10'2 4.1
2017-May-27 05:00N 57°29' E 007°07'2 4.1
2017-May-27 04:24N 57°29' E 007°02'3 4.6
2017-May-27 03:40N 57°28' E 006°56'3 8.9
2017-May-27 03:20N 57°29' E 006°50'411.0
2017-May-27 03:00N 57°31' E 006°45'1111.1
2017-May-27 01:58N 57°36' E 006°26'911.2
2017-May-27 01:09N 57°40' E 006°11'1810.9
2017-May-26 23:32N 57°49' E 005°42'211.0
2017-May-26 23:22N 57°50' E 005°39'511.0
2017-May-26 22:57N 57°53' E 005°32'1310.6
2017-May-26 21:44N 57°59' E 005°11'310.6
2017-May-26 21:27N 58°00' E 005°06'510.8
2017-May-26 21:00N 58°02' E 004°57'710.6
2017-May-26 20:23N 58°05' E 004°46'17 3.8
2017-May-26 15:58N 58°14' E 004°19'  
2017-May-20 00:44N 58°23' E 003°51'5910.5
2017-May-19 19:05N 57°53' E 005°27'110.8
2017-May-19 19:00N 57°52' E 005°28'1310.5
2017-May-19 17:47N 57°46' E 005°50'511.4
2017-May-19 17:23N 57°44' E 005°57'411.4
2017-May-19 17:00N 57°41' E 006°04'611.0
2017-May-19 16:30N 57°40' E 006°14'710.9
2017-May-19 15:53N 57°39' E 006°26'2111.3
2017-May-19 14:04N 57°31' E 007°01'2611.0
2017-May-19 11:43N 57°26' E 007°48'311.0
2017-May-19 11:25N 57°24' E 007°53'711.0
2017-May-19 10:50N 57°20' E 008°03'1411.2
2017-May-19 09:33N 57°12' E 008°24'8 0.4
2017-May-18 12:20N 57°07' E 008°36'0 0.0
2017-May-18 12:00N 57°07' E 008°36'0 0.0
2017-May-18 11:29N 57°07' E 008°36'0 0.0
2017-May-18 10:58N 57°07' E 008°36'0 0.0
2017-May-18 10:29N 57°07' E 008°36'0 0.0
2017-May-18 10:00N 57°07' E 008°36'0 0.0
2017-May-18 09:29N 57°07' E 008°36'  
Track history (hours):
 
Tides and Currents Weather Stations Pressure Air Temp Water Temp Dewpoint Dewpoint Depression Visibility Wind Speed Wind Dir Waves Ship Positions

Susanne.pairtrawler

Last reported at 2017-May-28 02:23 UTC. Time now 2017-May-28 20:27 UTC.
Position N 57°07' E 008°36'.

Length 40 m; draft 5 m.

Type: Fishing. MMSI: 211227510.

Date/timePositionNaut miles runAvg speedWind from/ knotsBaromVisibWave heightAir tempDewpointWater temp
2017-May-28 02:23N 57°07' E 008°36'0 0.0
2017-May-28 01:59N 57°07' E 008°36'0 0.0
2017-May-28 01:30N 57°07' E 008°36'0 0.0
2017-May-28 00:59N 57°07' E 008°36'0 0.0
2017-May-28 00:28N 57°07' E 008°36'0 0.3
2017-May-28 00:00N 57°07' E 008°36'5 8.9
2017-May-27 23:29N 57°10' E 008°29'611.1
2017-May-27 22:59N 57°13' E 008°20'29 9.4
2017-May-27 19:51N 57°28' E 007°33'1 1.3
2017-May-27 19:22N 57°28' E 007°32'1 2.3
2017-May-27 19:00N 57°28' E 007°30'1 2.4
2017-May-27 18:29N 57°28' E 007°28'1 2.3
2017-May-27 17:58N 57°28' E 007°26'1 2.2
2017-May-27 17:26N 57°28' E 007°24'1 2.0
2017-May-27 16:56N 57°28' E 007°22'1 2.3
2017-May-27 16:25N 57°29' E 007°20'12 2.6
2017-May-27 11:37N 57°26' E 007°42'1 3.8
2017-May-27 11:14N 57°27' E 007°39'1 3.9
2017-May-27 10:56N 57°27' E 007°37'2 3.9
2017-May-27 10:29N 57°27' E 007°34'2 4.1
2017-May-27 09:59N 57°27' E 007°30'1 2.5
2017-May-27 09:26N 57°28' E 007°28'2 3.2
2017-May-27 08:48N 57°28' E 007°24'1 3.9
2017-May-27 08:30N 57°28' E 007°22'2 4.0
2017-May-27 07:58N 57°28' E 007°18'2 4.0
2017-May-27 07:30N 57°28' E 007°14'1 0.8
2017-May-27 06:18N 57°29' E 007°15'1 2.9
2017-May-27 05:57N 57°28' E 007°14'2 4.1
2017-May-27 05:30N 57°29' E 007°10'2 4.1
2017-May-27 05:00N 57°29' E 007°07'2 4.1
2017-May-27 04:24N 57°29' E 007°02'3 4.6
2017-May-27 03:40N 57°28' E 006°56'3 8.9
2017-May-27 03:20N 57°29' E 006°50'411.0
2017-May-27 03:00N 57°31' E 006°45'1111.1
2017-May-27 01:58N 57°36' E 006°26'911.2
2017-May-27 01:09N 57°40' E 006°11'1810.9
2017-May-26 23:32N 57°49' E 005°42'211.0
2017-May-26 23:22N 57°50' E 005°39'511.0
2017-May-26 22:57N 57°53' E 005°32'1310.6
2017-May-26 21:44N 57°59' E 005°11'310.6
2017-May-26 21:27N 58°00' E 005°06'510.8
2017-May-26 21:00N 58°02' E 004°57'710.6
2017-May-26 20:23N 58°05' E 004°46'17 3.8
2017-May-26 15:58N 58°14' E 004°19'  
2017-May-20 00:44N 58°23' E 003°51'5910.5
2017-May-19 19:05N 57°53' E 005°27'110.8
2017-May-19 19:00N 57°52' E 005°28'1310.5
2017-May-19 17:47N 57°46' E 005°50'511.4
2017-May-19 17:23N 57°44' E 005°57'411.4
2017-May-19 17:00N 57°41' E 006°04'611.0
2017-May-19 16:30N 57°40' E 006°14'710.9
2017-May-19 15:53N 57°39' E 006°26'2111.3
2017-May-19 14:04N 57°31' E 007°01'2611.0
2017-May-19 11:43N 57°26' E 007°48'311.0
2017-May-19 11:25N 57°24' E 007°53'711.0
2017-May-19 10:50N 57°20' E 008°03'1411.2
2017-May-19 09:33N 57°12' E 008°24'8 0.4
2017-May-18 12:20N 57°07' E 008°36'0 0.0
2017-May-18 12:00N 57°07' E 008°36'0 0.0
2017-May-18 11:29N 57°07' E 008°36'0 0.0
2017-May-18 10:58N 57°07' E 008°36'0 0.0
2017-May-18 10:29N 57°07' E 008°36'0 0.0
2017-May-18 10:00N 57°07' E 008°36'0 0.0
2017-May-18 09:29N 57°07' E 008°36'  

Dump ship's entire track history